createdAt,value
2018-02-19T00:00:43.847Z,69.34
2018-02-19T00:01:52.671Z,69.53
2018-02-19T00:03:01.497Z,69.44
2018-02-19T00:04:10.600Z,69.34
2018-02-19T00:05:19.426Z,69.06
2018-02-19T00:06:28.251Z,69.06
2018-02-19T00:07:37.082Z,69.06
2018-02-19T00:08:45.905Z,68.59
2018-02-19T00:09:54.736Z,68.77
2018-02-19T00:11:03.561Z,68.21
2018-02-19T00:12:12.638Z,68.49
2018-02-19T00:13:21.465Z,68.12
2018-02-19T00:14:30.294Z,68.59
2018-02-19T00:15:39.123Z,68.21
2018-02-19T00:16:47.943Z,68.02
2018-02-19T00:17:56.770Z,67.45
2018-02-19T00:19:05.599Z,67.83
2018-02-19T00:20:14.424Z,67.55
2018-02-19T00:21:23.252Z,67.55
2018-02-19T00:22:32.079Z,67.55
2018-02-19T00:23:40.906Z,68.02
2018-02-19T00:24:49.734Z,67.64
2018-02-19T00:25:58.560Z,67.36
2018-02-19T00:27:07.664Z,67.64
2018-02-19T00:28:16.501Z,66.79
2018-02-19T00:29:25.327Z,67.17
2018-02-19T00:30:34.154Z,67.45
2018-02-19T00:31:43.004Z,67.17
2018-02-19T00:32:51.806Z,67.64
2018-02-19T00:34:00.632Z,67.36
2018-02-19T00:35:09.466Z,66.88
2018-02-19T00:36:18.294Z,66.88
2018-02-19T00:37:27.119Z,66.79
2018-02-19T00:38:35.950Z,67.45
2018-02-19T00:39:44.776Z,66.88
2018-02-19T00:40:53.605Z,66.88
2018-02-19T00:42:02.436Z,66.98
2018-02-19T00:43:11.538Z,67.07
2018-02-19T00:44:20.365Z,66.88
2018-02-19T00:45:29.192Z,67.17
2018-02-19T00:46:38.269Z,67.55
2018-02-19T00:47:47.126Z,66.88
2018-02-19T00:48:55.924Z,67.07
2018-02-19T00:50:04.753Z,66.98
2018-02-19T00:51:13.580Z,67.07
2018-02-19T00:52:22.563Z,67.07
2018-02-19T00:53:31.391Z,66.98
2018-02-19T00:54:40.218Z,67.17
2018-02-19T00:55:49.046Z,67.07
2018-02-19T00:56:57.874Z,66.88
2018-02-19T00:58:06.976Z,66.98
2018-02-19T00:59:15.835Z,66.88
2018-02-19T01:00:24.637Z,66.41
2018-02-19T01:01:33.739Z,66.41
2018-02-19T01:02:42.566Z,65.75
2018-02-19T01:03:51.391Z,66.41
2018-02-19T01:05:00.218Z,66.22
2018-02-19T01:06:09.043Z,65.75
2018-02-19T01:07:17.870Z,65.66
2018-02-19T01:08:26.695Z,65.75
2018-02-19T01:09:35.522Z,65.75
2018-02-19T01:10:44.348Z,65.75
2018-02-19T01:11:53.177Z,65.66
2018-02-19T01:13:02.004Z,65.75
2018-02-19T01:14:10.832Z,65.75
2018-02-19T01:15:19.657Z,65.09
2018-02-19T01:16:28.488Z,65.75
2018-02-19T01:17:37.313Z,65.47
2018-02-19T01:18:46.145Z,65.37
2018-02-19T01:19:54.974Z,65.18
2018-02-19T01:21:04.088Z,65.37
2018-02-19T01:22:12.911Z,65.47
2018-02-19T01:23:21.737Z,64.8
2018-02-19T01:24:30.563Z,65.47
2018-02-19T01:25:39.393Z,65.66
2018-02-19T01:26:48.219Z,65.47
2018-02-19T01:27:57.048Z,65.66
2018-02-19T01:29:05.876Z,65.28
2018-02-19T01:30:14.702Z,65.84
2018-02-19T01:31:23.529Z,64.8
2018-02-19T01:32:32.355Z,65.47
2018-02-19T01:33:41.183Z,65.47
2018-02-19T01:34:50.008Z,65.56
2018-02-19T01:35:58.837Z,65.56
2018-02-19T01:37:07.664Z,64.8
2018-02-19T01:38:16.540Z,64.71
2018-02-19T01:39:25.367Z,64.8
2018-02-19T01:40:34.195Z,64.99
2018-02-19T01:41:43.022Z,65.47
2018-02-19T01:42:51.849Z,65.28
2018-02-19T01:44:00.677Z,64.04
2018-02-19T01:45:09.506Z,64.33
2018-02-19T01:46:18.332Z,64.61
2018-02-19T01:47:27.162Z,64.33
2018-02-19T01:48:35.990Z,64.04
2018-02-19T01:49:45.370Z,64.33
2018-02-19T01:50:54.195Z,64.14
2018-02-19T01:52:03.023Z,64.33
2018-02-19T01:53:11.851Z,64.23
2018-02-19T01:54:20.676Z,63.76
2018-02-19T01:55:29.508Z,64.33
2018-02-19T01:56:38.332Z,63.76
2018-02-19T01:57:47.431Z,63.85
2018-02-19T01:58:56.257Z,63.76
2018-02-19T02:00:05.084Z,63.57
2018-02-19T02:01:13.911Z,63.57
2018-02-19T02:02:22.740Z,64.23
2018-02-19T02:03:31.565Z,64.23
2018-02-19T02:04:40.390Z,63.57
2018-02-19T02:05:49.218Z,63.76
2018-02-19T02:06:58.044Z,63.76
2018-02-19T02:08:07.149Z,63.85
2018-02-19T02:09:15.974Z,63.57
2018-02-19T02:10:25.083Z,63.57
2018-02-19T02:11:33.906Z,63.39
2018-02-19T02:12:42.784Z,63.57
2018-02-19T02:13:51.609Z,63.57
2018-02-19T02:15:00.436Z,63.48
2018-02-19T02:16:09.543Z,63.48
2018-02-19T02:17:18.369Z,63.48
2018-02-19T02:18:27.198Z,63.39
2018-02-19T02:19:36.024Z,63.39
2018-02-19T02:20:44.852Z,63.39
2018-02-19T02:21:53.677Z,63.39
2018-02-19T02:23:02.782Z,63.57
2018-02-19T02:24:11.611Z,63.39
2018-02-19T02:25:20.435Z,63.29
2018-02-19T02:26:29.261Z,63.48
2018-02-19T02:27:38.089Z,63.2
2018-02-19T02:28:46.917Z,63.39
2018-02-19T02:29:55.843Z,63.85
2018-02-19T02:31:04.668Z,62.91
2018-02-19T02:32:13.776Z,63.57
2018-02-19T02:33:22.604Z,63.57
2018-02-19T02:34:31.431Z,62.53
2018-02-19T02:35:40.258Z,63.1
2018-02-19T02:36:49.087Z,62.91
2018-02-19T02:37:57.912Z,62.44
2018-02-19T02:39:07.015Z,62.34
2018-02-19T02:40:15.840Z,62.82
2018-02-19T02:41:24.667Z,63.1
2018-02-19T02:42:33.492Z,63.2
2018-02-19T02:43:42.597Z,63.2
2018-02-19T02:44:51.423Z,63.67
2018-02-19T02:46:00.251Z,63.57
2018-02-19T02:47:09.078Z,63.39
2018-02-19T02:48:17.906Z,63.57
2018-02-19T02:49:26.732Z,63.85
2018-02-19T02:50:35.559Z,63.29
2018-02-19T02:51:44.388Z,63.67
2018-02-19T02:52:53.216Z,63.48
2018-02-19T02:54:02.045Z,63.29
2018-02-19T02:55:10.871Z,63.76
2018-02-19T02:56:19.698Z,64.42
2018-02-19T02:57:28.527Z,63.95
2018-02-19T02:58:37.353Z,64.04
2018-02-19T02:59:46.180Z,63.67
2018-02-19T03:00:55.059Z,63.76
2018-02-19T03:02:03.885Z,63.67
2018-02-19T03:03:12.712Z,63.39
2018-02-19T03:04:21.543Z,63.29
2018-02-19T03:05:30.366Z,63.01
2018-02-19T03:06:39.194Z,63.85
2018-02-19T03:07:48.020Z,63.39
2018-02-19T03:08:56.850Z,63.48
2018-02-19T03:10:05.685Z,63.1
2018-02-19T03:11:14.507Z,63.48
2018-02-19T03:12:23.334Z,63.76
2018-02-19T03:13:32.159Z,63.76
2018-02-19T03:14:40.983Z,63.85
2018-02-19T03:15:49.811Z,63.1
2018-02-19T03:16:58.639Z,63.76
2018-02-19T03:18:07.747Z,63.67
2018-02-19T03:19:16.576Z,63.67
2018-02-19T03:20:25.399Z,63.01
2018-02-19T03:21:34.275Z,62.72
2018-02-19T03:22:43.103Z,63.67
2018-02-19T03:23:51.930Z,63.57
2018-02-19T03:25:00.756Z,63.76
2018-02-19T03:26:09.585Z,62.82
2018-02-19T03:27:18.696Z,63.39
2018-02-19T03:28:27.524Z,63.29
2018-02-19T03:29:36.349Z,63.67
2018-02-19T03:30:45.177Z,63.76
2018-02-19T03:31:54.006Z,62.82
2018-02-19T03:33:02.835Z,63.57
2018-02-19T03:34:11.662Z,63.57
2018-02-19T03:35:20.496Z,63.57
2018-02-19T03:36:29.323Z,63.29
2018-02-19T03:37:38.149Z,63.48
2018-02-19T03:38:47.025Z,63.57
2018-02-19T03:39:55.854Z,63.2
2018-02-19T03:41:04.681Z,63.85
2018-02-19T03:42:13.508Z,63.76
2018-02-19T03:43:22.335Z,63.48
2018-02-19T03:44:31.161Z,64.33
2018-02-19T03:45:40.264Z,64.23
2018-02-19T03:46:49.091Z,64.42
2018-02-19T03:47:57.917Z,65.47
2018-02-19T03:49:07.018Z,65.09
2018-02-19T03:50:15.845Z,65.56
2018-02-19T03:51:24.673Z,65.09
2018-02-19T03:52:33.500Z,64.61
2018-02-19T03:53:42.328Z,64.42
2018-02-19T03:54:51.155Z,64.99
2018-02-19T03:55:59.983Z,64.9
2018-02-19T03:57:09.088Z,64.61
2018-02-19T03:58:17.914Z,64.71
2018-02-19T03:59:27.017Z,64.8
2018-02-19T04:00:35.847Z,64.9
2018-02-19T04:01:44.674Z,65.37
2018-02-19T04:02:53.501Z,65.09
2018-02-19T04:04:02.329Z,65.56
2018-02-19T04:05:11.159Z,65.84
2018-02-19T04:06:19.982Z,66.31
2018-02-19T04:07:28.811Z,66.5
2018-02-19T04:08:37.639Z,66.6
2018-02-19T04:09:46.465Z,65.75
2018-02-19T04:10:55.294Z,65.47
2018-02-19T04:12:04.395Z,67.01
2018-02-19T04:13:13.221Z,66.98
2018-02-19T04:14:22.051Z,65.94
2018-02-19T04:15:30.877Z,66.31
2018-02-19T04:16:39.705Z,65.66
2018-02-19T04:17:48.532Z,66.41
2018-02-19T04:18:57.363Z,65.78
2018-02-19T04:20:06.464Z,65.66
2018-02-19T04:21:15.291Z,66.06
2018-02-19T04:22:24.118Z,65.84
2018-02-19T04:23:32.944Z,65.94
2018-02-19T04:24:41.772Z,66.44
2018-02-19T04:25:50.596Z,65.69
2018-02-19T04:26:59.422Z,66.25
2018-02-19T04:28:08.258Z,65.69
2018-02-19T04:29:17.082Z,66.31
2018-02-19T04:30:25.959Z,65.78
2018-02-19T04:31:34.787Z,65.69
2018-02-19T04:32:43.612Z,65.5
2018-02-19T04:33:52.440Z,65.4
2018-02-19T04:35:01.265Z,65.75
2018-02-19T04:36:10.093Z,65.66
2018-02-19T04:37:18.923Z,65.88
2018-02-19T04:38:27.749Z,65.66
2018-02-19T04:39:36.856Z,65.56
2018-02-19T04:40:45.683Z,65.78
2018-02-19T04:41:54.512Z,65.47
2018-02-19T04:43:03.616Z,65.78
2018-02-19T04:44:12.720Z,65.56
2018-02-19T04:45:21.552Z,65.75
2018-02-19T04:46:30.651Z,65.47
2018-02-19T04:47:39.479Z,65.84
2018-02-19T04:48:48.315Z,65.66
2018-02-19T04:49:57.686Z,65.84
2018-02-19T04:51:06.514Z,64.99
2018-02-19T04:52:15.339Z,65.56
2018-02-19T04:53:24.164Z,64.99
2018-02-19T04:54:32.992Z,65.18
2018-02-19T04:55:41.819Z,64.99
2018-02-19T04:56:50.645Z,65.09
2018-02-19T04:57:59.473Z,65.37
2018-02-19T04:59:08.301Z,64.8
2018-02-19T05:00:17.407Z,64.9
2018-02-19T05:01:26.234Z,64.9
2018-02-19T05:02:35.062Z,65.66
2018-02-19T05:03:43.886Z,65.66
2018-02-19T05:04:52.763Z,64.99
2018-02-19T05:06:01.590Z,65.37
2018-02-19T05:07:10.420Z,65.09
2018-02-19T05:08:19.245Z,64.9
2018-02-19T05:09:28.071Z,64.99
2018-02-19T05:10:36.896Z,64.14
2018-02-19T05:11:45.998Z,64.61
2018-02-19T05:12:55.103Z,64.33
2018-02-19T05:14:04.207Z,64.04
2018-02-19T05:15:13.318Z,64.52
2018-02-19T05:16:22.144Z,64.71
2018-02-19T05:17:30.968Z,64.04
2018-02-19T05:18:40.355Z,64.33
2018-02-19T05:19:49.180Z,64.61
2018-02-19T05:20:58.007Z,64.52
2018-02-19T05:22:06.837Z,64.23
2018-02-19T05:23:15.665Z,64.14
2018-02-19T05:24:24.489Z,64.14
2018-02-19T05:25:33.315Z,64.14
2018-02-19T05:26:42.143Z,64.33
2018-02-19T05:27:50.972Z,64.14
2018-02-19T05:28:59.800Z,64.04
2018-02-19T05:30:08.627Z,64.23
2018-02-19T05:31:17.455Z,64.14
2018-02-19T05:32:26.280Z,64.04
2018-02-19T05:33:35.111Z,63.67
2018-02-19T05:34:43.945Z,63.67
2018-02-19T05:35:53.048Z,64.14
2018-02-19T05:37:01.876Z,63.85
2018-02-19T05:38:10.704Z,63.67
2018-02-19T05:39:19.533Z,63.76
2018-02-19T05:40:28.362Z,63.48
2018-02-19T05:41:37.199Z,63.39
2018-02-19T05:42:46.026Z,63.67
2018-02-19T05:43:54.853Z,63.39
2018-02-19T05:45:03.679Z,63.39
2018-02-19T05:46:12.509Z,63.2
2018-02-19T05:47:21.338Z,63.85
2018-02-19T05:48:30.166Z,63.01
2018-02-19T05:49:39.269Z,63.67
2018-02-19T05:50:48.250Z,63.57
2018-02-19T05:51:57.079Z,63.39
2018-02-19T05:53:05.904Z,63.39
2018-02-19T05:54:14.733Z,63.95
2018-02-19T05:55:23.559Z,63.67
2018-02-19T05:56:32.387Z,63.29
2018-02-19T05:57:41.215Z,63.76
2018-02-19T05:58:50.049Z,63.76
2018-02-19T05:59:58.874Z,63.67
2018-02-19T06:01:07.704Z,63.67
2018-02-19T06:02:16.582Z,63.67
2018-02-19T06:03:25.501Z,64.14
2018-02-19T06:04:34.328Z,64.04
2018-02-19T06:05:43.439Z,64.04
2018-02-19T06:06:52.316Z,64.23
2018-02-19T06:08:01.145Z,64.52
2018-02-19T06:09:09.972Z,64.9
2018-02-19T06:10:18.805Z,64.9
2018-02-19T06:11:27.632Z,64.99
2018-02-19T06:12:36.463Z,65.47
2018-02-19T06:13:45.346Z,65.28
2018-02-19T06:14:54.177Z,66.41
2018-02-19T06:16:03.005Z,66.06
2018-02-19T06:17:11.832Z,66.06
2018-02-19T06:18:20.937Z,65.97
2018-02-19T06:19:29.763Z,65.59
2018-02-19T06:20:38.591Z,65.59
2018-02-19T06:21:47.417Z,66.16
2018-02-19T06:22:56.293Z,66.44
2018-02-19T06:24:05.119Z,66.13
2018-02-19T06:25:13.953Z,65.78
2018-02-19T06:26:22.774Z,66.44
2018-02-19T06:27:31.607Z,66.82
2018-02-19T06:28:40.708Z,66.79
2018-02-19T06:29:49.538Z,66.69
2018-02-19T06:30:58.366Z,66.13
2018-02-19T06:32:07.475Z,66.63
2018-02-19T06:33:16.451Z,66.92
2018-02-19T06:34:25.278Z,66.44
2018-02-19T06:35:34.104Z,66.35
2018-02-19T06:36:42.940Z,67.11
2018-02-19T06:37:52.041Z,66.35
2018-02-19T06:39:01.016Z,66.73
2018-02-19T06:40:09.847Z,66.92
2018-02-19T06:41:18.673Z,66.53
2018-02-19T06:42:27.497Z,67.68
2018-02-19T06:43:36.328Z,67.58
2018-02-19T06:44:45.305Z,67.2
2018-02-19T06:45:54.132Z,67.68
2018-02-19T06:47:03.242Z,67.2
2018-02-19T06:48:12.069Z,66.82
2018-02-19T06:49:20.894Z,67.11
2018-02-19T06:50:29.724Z,67.11
2018-02-19T06:51:38.551Z,67.68
2018-02-19T06:52:47.384Z,69
2018-02-19T06:53:56.211Z,67.86
2018-02-19T06:55:05.042Z,68.24
2018-02-19T06:56:13.867Z,69.19
2018-02-19T06:57:22.697Z,68.43
2018-02-19T06:58:31.523Z,69.09
2018-02-19T06:59:40.349Z,69
2018-02-19T07:00:49.176Z,69.19
2018-02-19T07:01:58.003Z,69.09
2018-02-19T07:03:06.829Z,70.14
2018-02-19T07:04:15.656Z,69.47
2018-02-19T07:05:24.483Z,69.76
2018-02-19T07:06:33.313Z,69.95
2018-02-19T07:07:42.416Z,69.57
2018-02-19T07:08:51.242Z,69.19
2018-02-19T07:10:00.072Z,68.81
2018-02-19T07:11:08.900Z,69.19
2018-02-19T07:12:17.727Z,70.04
2018-02-19T07:13:27.113Z,70.23
2018-02-19T07:14:36.216Z,69.28
2018-02-19T07:15:45.045Z,69.57
2018-02-19T07:16:53.872Z,70.61
2018-02-19T07:18:02.702Z,70.7
2018-02-19T07:19:11.528Z,70.61
2018-02-19T07:20:20.355Z,70.14
2018-02-19T07:21:29.184Z,70.14
2018-02-19T07:22:38.013Z,70.61
2018-02-19T07:23:46.842Z,70.61
2018-02-19T07:24:55.952Z,70.51
2018-02-19T07:26:04.781Z,70.42
2018-02-19T07:27:13.611Z,70.51
2018-02-19T07:28:22.438Z,70.51
2018-02-19T07:29:31.265Z,70.7
2018-02-19T07:30:40.095Z,71.08
2018-02-19T07:31:48.921Z,70.7
2018-02-19T07:32:58.051Z,70.61
2018-02-19T07:34:06.884Z,70.42
2018-02-19T07:35:15.713Z,71.36
2018-02-19T07:36:24.539Z,71.55
2018-02-19T07:37:33.371Z,71.84
2018-02-19T07:38:42.295Z,71.27
2018-02-19T07:39:51.122Z,71.55
2018-02-19T07:40:59.950Z,71.93
2018-02-19T07:42:08.781Z,71.84
2018-02-19T07:43:17.608Z,71.55
2018-02-19T07:44:26.588Z,72.03
2018-02-19T07:45:35.416Z,72.78
2018-02-19T07:46:44.245Z,72.22
2018-02-19T07:47:53.073Z,72.69
2018-02-19T07:49:01.903Z,72.22
2018-02-19T07:50:10.879Z,72.5
2018-02-19T07:51:19.708Z,72.5
2018-02-19T07:52:28.536Z,72.03
2018-02-19T07:53:37.367Z,72.03
2018-02-19T07:54:46.193Z,72.6
2018-02-19T07:55:55.170Z,72.5
2018-02-19T07:57:04.278Z,72.97
2018-02-19T07:58:13.107Z,72.12
2018-02-19T07:59:21.935Z,73.39
2018-02-19T08:00:30.817Z,73.07
2018-02-19T08:01:39.793Z,74.4
2018-02-19T08:02:48.621Z,73.64
2018-02-19T08:03:57.449Z,73.54
2018-02-19T08:05:06.281Z,73.58
2018-02-19T08:06:15.111Z,74.15
2018-02-19T08:07:23.936Z,73.64
2018-02-19T08:08:32.765Z,74.4
2018-02-19T08:09:41.595Z,74.11
2018-02-19T08:10:50.423Z,74.3
2018-02-19T08:11:59.305Z,74.4
2018-02-19T08:13:08.234Z,74.87
2018-02-19T08:14:17.064Z,74.49
2018-02-19T08:15:25.891Z,74.33
2018-02-19T08:16:34.723Z,74.9
2018-02-19T08:17:43.556Z,74.62
2018-02-19T08:18:52.530Z,75.09
2018-02-19T08:20:01.361Z,75.38
2018-02-19T08:21:10.190Z,74.9
2018-02-19T08:22:19.016Z,74.52
2018-02-19T08:23:27.844Z,74.62
2018-02-19T08:24:36.962Z,75.85
2018-02-19T08:25:45.785Z,75.09
2018-02-19T08:26:54.621Z,75.57
2018-02-19T08:28:03.730Z,75.09
2018-02-19T08:29:12.556Z,75.19
2018-02-19T08:30:21.536Z,75.57
2018-02-19T08:31:30.366Z,75.47
2018-02-19T08:32:39.195Z,75.28
2018-02-19T08:33:48.023Z,75.66
2018-02-19T08:34:56.853Z,75.66
2018-02-19T08:36:05.732Z,76.23
2018-02-19T08:37:14.565Z,76.23
2018-02-19T08:38:23.388Z,76.23
2018-02-19T08:39:32.220Z,76.04
2018-02-19T08:40:41.326Z,76.23
2018-02-19T08:41:50.435Z,76.14
2018-02-19T08:42:59.266Z,76.04
2018-02-19T08:44:08.098Z,76.23
2018-02-19T08:45:16.928Z,76.7
2018-02-19T08:46:25.757Z,76.42
2018-02-19T08:47:34.685Z,76.51
2018-02-19T08:48:43.797Z,76.14
2018-02-19T08:49:52.629Z,76.99
2018-02-19T08:51:01.738Z,77.37
2018-02-19T08:52:10.566Z,76.99
2018-02-19T08:53:19.471Z,77.27
2018-02-19T08:54:28.280Z,76.8
2018-02-19T08:55:37.109Z,77.08
2018-02-19T08:56:45.942Z,77.37
2018-02-19T08:57:54.768Z,77.84
2018-02-19T08:59:03.653Z,77.27
2018-02-19T09:00:12.480Z,78.07
2018-02-19T09:01:21.314Z,77.75
2018-02-19T09:02:30.145Z,77.65
2018-02-19T09:03:38.980Z,77.75
2018-02-19T09:04:48.109Z,78.03
2018-02-19T09:05:57.226Z,78.35
2018-02-19T09:07:06.355Z,78.13
2018-02-19T09:08:15.185Z,78.03
2018-02-19T09:09:24.016Z,78.22
2018-02-19T09:10:32.849Z,77.78
2018-02-19T09:11:41.679Z,77.75
2018-02-19T09:12:50.786Z,77.84
2018-02-19T09:13:59.946Z,78.45
2018-02-19T09:15:08.778Z,78.5
2018-02-19T09:16:17.884Z,77.69
2018-02-19T09:17:26.717Z,78.16
2018-02-19T09:18:35.540Z,79.02
2018-02-19T09:19:44.371Z,78.73
2018-02-19T09:20:53.477Z,78.98
2018-02-19T09:22:02.360Z,78.88
2018-02-19T09:23:11.188Z,78.79
2018-02-19T09:24:20.018Z,79.07
2018-02-19T09:25:28.849Z,78.69
2018-02-19T09:26:37.679Z,78.88
2018-02-19T09:27:46.507Z,78.41
2018-02-19T09:28:55.340Z,78.59
2018-02-19T09:30:04.169Z,78.59
2018-02-19T09:31:13.000Z,78.41
2018-02-19T09:32:21.830Z,78.79
2018-02-19T09:33:30.908Z,78.98
2018-02-19T09:34:39.742Z,78.73
2018-02-19T09:35:48.571Z,78.16
2018-02-19T09:36:57.450Z,78.83
2018-02-19T09:38:06.559Z,78.92
2018-02-19T09:39:15.719Z,78.83
2018-02-19T09:40:24.548Z,78.73
2018-02-19T09:41:33.378Z,79.58
2018-02-19T09:42:42.211Z,79.49
2018-02-19T09:43:51.041Z,79.39
2018-02-19T09:45:00.171Z,79.49
2018-02-19T09:46:09.001Z,79.96
2018-02-19T09:47:17.833Z,80.44
2018-02-19T09:48:26.664Z,80.15
2018-02-19T09:49:35.498Z,80.72
2018-02-19T09:50:44.331Z,81.48
2018-02-19T09:51:53.160Z,81.76
2018-02-19T09:53:01.998Z,81.76
2018-02-19T09:54:10.823Z,82.71
2018-02-19T09:55:19.657Z,82.24
2018-02-19T09:56:28.489Z,82.24
2018-02-19T09:57:37.601Z,82.24
2018-02-19T09:58:46.431Z,82.9
2018-02-19T09:59:55.541Z,82.71
2018-02-19T10:01:04.374Z,82.81
2018-02-19T10:02:13.264Z,83.09
2018-02-19T10:03:22.084Z,82.71
2018-02-19T10:04:30.912Z,83.47
2018-02-19T10:05:39.830Z,83.18
2018-02-19T10:06:48.577Z,82.81
2018-02-19T10:07:57.686Z,83.18
2018-02-19T10:09:06.522Z,82.85
2018-02-19T10:10:15.377Z,83.04
2018-02-19T10:11:24.189Z,83.51
2018-02-19T10:12:33.018Z,83.8
2018-02-19T10:13:42.407Z,83.42
2018-02-19T10:14:51.246Z,83.8
2018-02-19T10:16:00.075Z,84.46
2018-02-19T10:17:09.465Z,83.56
2018-02-19T10:18:18.295Z,83.66
2018-02-19T10:19:27.175Z,83.8
2018-02-19T10:20:36.008Z,83.89
2018-02-19T10:21:44.839Z,84.65
2018-02-19T10:22:53.676Z,84.61
2018-02-19T10:24:02.505Z,83.94
2018-02-19T10:25:11.537Z,83.75
2018-02-19T10:26:20.365Z,84.23
2018-02-19T10:27:29.475Z,83.75
2018-02-19T10:28:38.304Z,83.7
2018-02-19T10:29:47.135Z,84.23
2018-02-19T10:30:56.067Z,83.85
2018-02-19T10:32:04.901Z,83.56
2018-02-19T10:33:13.782Z,84.27
2018-02-19T10:34:22.612Z,84.27
2018-02-19T10:35:31.444Z,83.61
2018-02-19T10:36:40.324Z,83.8
2018-02-19T10:37:49.157Z,84.17
2018-02-19T10:38:57.988Z,84.46
2018-02-19T10:40:06.820Z,84.17
2018-02-19T10:41:15.652Z,84.27
2018-02-19T10:42:24.760Z,83.8
2018-02-19T10:43:33.592Z,84.08
2018-02-19T10:44:42.459Z,84.55
2018-02-19T10:45:51.252Z,83.61
2018-02-19T10:47:00.087Z,84.27
2018-02-19T10:48:09.244Z,84.08
2018-02-19T10:49:18.077Z,84.65
2018-02-19T10:50:26.902Z,84.55
2018-02-19T10:51:35.733Z,84.08
2018-02-19T10:52:44.581Z,85.13
2018-02-19T10:53:53.393Z,84.94
2018-02-19T10:55:02.224Z,85.03
2018-02-19T10:56:11.055Z,85.22
2018-02-19T10:57:19.886Z,85.13
2018-02-19T10:58:28.716Z,85.13
2018-02-19T10:59:37.648Z,84.94
2018-02-19T11:00:46.478Z,85.13
2018-02-19T11:01:55.311Z,84.84
2018-02-19T11:03:04.417Z,84.94
2018-02-19T11:04:13.247Z,85.69
2018-02-19T11:05:22.560Z,85.6
2018-02-19T11:06:31.393Z,86.07
2018-02-19T11:07:40.231Z,85.41
2018-02-19T11:08:49.054Z,85.5
2018-02-19T11:09:57.884Z,85.78
2018-02-19T11:11:07.002Z,86.21
2018-02-19T11:12:15.830Z,85.64
2018-02-19T11:13:24.680Z,86.3
2018-02-19T11:14:33.490Z,86.4
2018-02-19T11:15:42.328Z,86.07
2018-02-19T11:16:51.589Z,86.68
2018-02-19T11:18:00.416Z,86.3
2018-02-19T11:19:09.249Z,86.4
2018-02-19T11:20:18.369Z,86.59
2018-02-19T11:21:27.204Z,86.49
2018-02-19T11:22:36.038Z,86.59
2018-02-19T11:23:44.868Z,86.49
2018-02-19T11:24:53.699Z,87.45
2018-02-19T11:26:02.584Z,87.45
2018-02-19T11:27:11.414Z,87.25
2018-02-19T11:28:20.294Z,87.45
2018-02-19T11:29:29.126Z,87.54
2018-02-19T11:30:37.957Z,87.35
2018-02-19T11:31:47.066Z,87.92
2018-02-19T11:32:55.948Z,87.35
2018-02-19T11:34:04.779Z,87.82
2018-02-19T11:35:13.612Z,88.29
2018-02-19T11:36:22.443Z,89.15
2018-02-19T11:37:31.277Z,89.25
2018-02-19T11:38:40.108Z,88.77
2018-02-19T11:39:48.939Z,88.87
2018-02-19T11:40:57.770Z,88.87
2018-02-19T11:42:06.600Z,88.68
2018-02-19T11:43:15.433Z,88.87
2018-02-19T11:44:24.267Z,88.58
2018-02-19T11:45:33.370Z,89.06
2018-02-19T11:46:42.231Z,88.68
2018-02-19T11:47:51.039Z,89.06
2018-02-19T11:49:00.143Z,88.96
2018-02-19T11:50:08.974Z,89.06
2018-02-19T11:51:17.858Z,89.62
2018-02-19T11:52:26.785Z,88.87
2018-02-19T11:53:36.263Z,88.68
2018-02-19T11:54:45.343Z,89.15
2018-02-19T11:55:54.523Z,88.96
2018-02-19T11:57:03.353Z,89.62
2018-02-19T11:58:12.542Z,88.81
2018-02-19T11:59:21.386Z,89.58
2018-02-19T12:00:30.289Z,89
2018-02-19T12:01:39.928Z,89.48
2018-02-19T12:02:49.055Z,89.2
2018-02-19T12:03:58.139Z,89.67
2018-02-19T12:05:06.992Z,89.48
2018-02-19T12:06:16.045Z,89.67
2018-02-19T12:07:24.963Z,89.48
2018-02-19T12:10:13.045Z,90.14
2018-02-19T12:11:21.905Z,89.86
2018-02-19T12:12:31.155Z,90.05
2018-02-19T12:15:19.073Z,90.24
2018-02-19T12:16:28.028Z,90.14
2018-02-19T12:17:37.154Z,90.33
2018-02-19T12:18:46.322Z,90.14
2018-02-19T12:19:55.429Z,90.52
2018-02-19T12:21:04.271Z,90.33
2018-02-19T12:22:13.458Z,90.81
2018-02-19T12:23:22.694Z,90.81
2018-02-19T12:24:31.795Z,91.52
2018-02-19T12:25:40.646Z,91.61
2018-02-19T12:26:49.476Z,90.76
2018-02-19T12:27:58.525Z,91.42
2018-02-19T12:29:07.367Z,91.61
2018-02-19T12:30:16.731Z,91.71
2018-02-19T12:31:25.840Z,91.8
2018-02-19T12:32:34.708Z,91.24
2018-02-19T12:33:44.279Z,91.42
2018-02-19T12:34:53.441Z,91.99
2018-02-19T12:36:02.653Z,91.24
2018-02-19T12:37:11.511Z,91.89
2018-02-19T12:38:20.469Z,91.33
2018-02-19T12:39:29.561Z,92.37
2018-02-19T12:40:38.878Z,91.89
2018-02-19T12:41:47.764Z,92.09
2018-02-19T12:42:56.644Z,91.99
2018-02-19T12:44:05.498Z,91.8
2018-02-19T12:45:15.389Z,91.04
2018-02-19T12:46:24.227Z,92.18
2018-02-19T12:47:33.402Z,92.09
2018-02-19T12:48:42.542Z,91.94
2018-02-19T12:49:51.708Z,93.18
2018-02-19T12:51:00.829Z,92.32
2018-02-19T12:52:09.664Z,92.9
2018-02-19T12:53:18.549Z,92.32
2018-02-19T12:54:27.386Z,92.32
2018-02-19T12:55:36.220Z,93.18
2018-02-19T12:56:45.055Z,93.18
2018-02-19T12:57:53.891Z,93.18
2018-02-19T12:59:02.727Z,93.18
2018-02-19T13:00:11.564Z,93.18
2018-02-19T13:01:20.401Z,92.71
2018-02-19T13:02:29.288Z,93.32
2018-02-19T13:03:38.123Z,93.41
2018-02-19T13:04:47.058Z,93.41
2018-02-19T13:05:55.893Z,93.18
2018-02-19T13:07:04.731Z,93.23
2018-02-19T13:08:13.570Z,93.41
2018-02-19T13:09:22.418Z,93.51
2018-02-19T13:10:31.832Z,93.37
2018-02-19T13:11:40.675Z,93.75
2018-02-19T13:12:49.504Z,93.84
2018-02-19T13:13:58.340Z,93.65
2018-02-19T13:15:07.180Z,93.94
2018-02-19T13:16:16.014Z,94.08
2018-02-19T13:17:24.851Z,93.79
2018-02-19T13:18:33.689Z,93.79
2018-02-19T13:19:42.529Z,93.99
2018-02-19T13:20:51.367Z,93.89
2018-02-19T13:22:00.506Z,93.6
2018-02-19T13:23:09.344Z,94.27
2018-02-19T13:24:18.181Z,93.7
2018-02-19T13:25:27.020Z,93.79
2018-02-19T13:26:36.137Z,93.7
2018-02-19T13:27:45.404Z,93.7
2018-02-19T13:28:54.242Z,93.23
2018-02-19T13:30:03.082Z,93.79
2018-02-19T13:31:11.920Z,93.89
2018-02-19T13:32:20.764Z,93.89
2018-02-19T13:33:29.877Z,93.89
2018-02-19T13:34:38.714Z,94.46
2018-02-19T13:35:47.552Z,93.79
2018-02-19T13:36:56.386Z,94.46
2018-02-19T13:38:05.501Z,93.6
2018-02-19T13:39:14.487Z,93.7
2018-02-19T13:40:23.324Z,93.89
2018-02-19T13:41:32.160Z,93.6
2018-02-19T13:42:40.997Z,93.6
2018-02-19T13:43:49.835Z,93.79
2018-02-19T13:44:58.975Z,94.46
2018-02-19T13:46:07.813Z,94.84
2018-02-19T13:47:16.649Z,95.22
2018-02-19T13:48:25.486Z,94.65
2018-02-19T13:49:34.321Z,94.56
2018-02-19T13:50:43.211Z,94.46
2018-02-19T13:51:52.049Z,94.27
2018-02-19T13:53:00.890Z,94.93
2018-02-19T13:54:10.007Z,94.46
2018-02-19T13:55:19.167Z,94.18
2018-02-19T13:56:28.103Z,93.51
2018-02-19T13:57:36.938Z,93.89
2018-02-19T13:58:45.778Z,93.7
2018-02-19T13:59:54.617Z,93.79
2018-02-19T14:01:03.448Z,93.89
2018-02-19T14:02:12.340Z,93.32
2018-02-19T14:05:02.016Z,93.79
2018-02-19T14:06:11.130Z,94.18
2018-02-19T14:07:20.268Z,94.56
2018-02-19T14:08:29.105Z,94.27
2018-02-19T14:09:37.941Z,94.46
2018-02-19T14:10:46.777Z,93.79
2018-02-19T14:11:55.609Z,93.6
2018-02-19T14:13:04.493Z,93.7
2018-02-19T14:14:13.330Z,93.89
2018-02-19T14:15:22.166Z,93.41
2018-02-19T14:16:31.279Z,93.7
2018-02-19T14:17:40.115Z,94.56
2018-02-19T14:18:49.324Z,94.08
2018-02-19T14:19:58.159Z,94.84
2018-02-19T14:21:07.556Z,94.65
2018-02-19T14:22:16.667Z,94.65
2018-02-19T14:23:25.503Z,94.93
2018-02-19T14:24:34.489Z,94.37
2018-02-19T14:25:43.325Z,94.37
2018-02-19T14:26:52.162Z,93.41
2018-02-19T14:28:00.996Z,93.04
2018-02-19T14:29:09.832Z,93.23
2018-02-19T14:30:18.769Z,93.13
2018-02-19T14:31:27.607Z,93.51
2018-02-19T14:32:36.451Z,93.79
2018-02-19T14:33:45.558Z,93.41
2018-02-19T14:34:54.395Z,93.51
2018-02-19T14:36:03.282Z,94.27
2018-02-19T14:37:12.398Z,94.27
2018-02-19T14:38:21.237Z,94.27
2018-02-19T14:39:30.075Z,92.8
2018-02-19T14:40:39.194Z,93.18
2018-02-19T14:41:48.334Z,93.18
2018-02-19T14:42:57.177Z,93.37
2018-02-19T14:44:06.020Z,93.08
2018-02-19T14:45:14.856Z,92.8
2018-02-19T14:46:23.977Z,92.03
2018-02-19T14:47:33.337Z,91.94
2018-02-19T14:48:42.171Z,92.22
2018-02-19T14:49:51.004Z,92.61
2018-02-19T14:50:59.839Z,92.03
2018-02-19T14:52:08.675Z,92.03
2018-02-19T14:53:17.609Z,92.51
2018-02-19T14:54:26.729Z,92.13
2018-02-19T14:55:35.838Z,90.99